createdAt,value
2022-09-27T00:01:24.873Z,10.78
2022-09-27T00:03:55.619Z,10.73
2022-09-27T00:06:28.141Z,10.65
2022-09-27T00:08:56.092Z,10.60
2022-09-27T00:11:44.283Z,10.56
2022-09-27T00:14:13.523Z,10.52
2022-09-27T00:16:43.370Z,10.47
2022-09-27T00:19:17.039Z,10.45
2022-09-27T00:21:48.152Z,10.44
2022-09-27T00:24:17.996Z,10.51
2022-09-27T00:26:50.724Z,10.51
2022-09-27T00:29:21.710Z,10.48
2022-09-27T00:31:48.831Z,10.56
2022-09-27T00:34:22.967Z,10.56
2022-09-27T00:36:51.530Z,10.67
2022-09-27T00:39:19.070Z,10.67
2022-09-27T00:41:46.137Z,10.66
2022-09-27T00:44:25.629Z,10.64
2022-09-27T00:47:10.948Z,10.68
2022-09-27T00:49:45.024Z,10.69
2022-09-27T00:52:15.987Z,10.68
2022-09-27T00:54:46.327Z,10.68
2022-09-27T00:57:13.297Z,10.61
2022-09-27T00:59:52.141Z,10.65
2022-09-27T01:02:19.687Z,10.59
2022-09-27T01:04:47.868Z,10.54
2022-09-27T01:07:19.344Z,10.50
2022-09-27T01:09:46.776Z,10.41
2022-09-27T01:12:39.214Z,10.33
2022-09-27T01:15:20.921Z,10.33
2022-09-27T01:18:15.574Z,10.31
2022-09-27T01:21:06.163Z,10.39
2022-09-27T01:24:01.228Z,10.30
2022-09-27T01:26:43.048Z,10.32
2022-09-27T01:29:20.237Z,10.38
2022-09-27T01:31:59.568Z,10.40
2022-09-27T01:34:44.353Z,10.34
2022-09-27T01:37:17.429Z,10.34
2022-09-27T01:40:07.293Z,10.26
2022-09-27T01:43:24.157Z,10.19
2022-09-27T01:46:11.054Z,10.12
2022-09-27T01:49:02.858Z,10.01
2022-09-27T01:51:35.580Z,10.02
2022-09-27T01:54:09.965Z,10.00
2022-09-27T01:57:00.368Z,10.07
2022-09-27T01:59:47.822Z,10.03
2022-09-27T02:02:46.132Z,10.04
2022-09-27T02:05:46.195Z,9.98
2022-09-27T02:09:03.089Z,9.95
2022-09-27T02:11:58.022Z,10.01
2022-09-27T02:14:32.121Z,10.01
2022-09-27T02:17:39.375Z,10.00
2022-09-27T02:20:24.103Z,10.01
2022-09-27T02:23:02.936Z,10.05
2022-09-27T02:25:32.881Z,10.08
2022-09-27T02:28:29.727Z,10.14
2022-09-27T02:30:57.904Z,10.19
2022-09-27T02:33:37.409Z,10.23
2022-09-27T02:36:05.220Z,10.27
2022-09-27T02:38:33.303Z,10.31
2022-09-27T02:41:02.820Z,10.34
2022-09-27T02:43:33.213Z,10.37
2022-09-27T02:46:11.099Z,10.38
2022-09-27T02:49:09.774Z,10.37
2022-09-27T02:51:52.581Z,10.41
2022-09-27T02:54:31.402Z,10.40
2022-09-27T02:57:22.728Z,10.38
2022-09-27T03:00:14.188Z,10.31
2022-09-27T03:03:17.624Z,10.22
2022-09-27T03:06:07.357Z,10.15
2022-09-27T03:08:34.599Z,10.09
2022-09-27T03:11:04.687Z,10.05
2022-09-27T03:13:31.860Z,10.10
2022-09-27T03:16:01.770Z,10.02
2022-09-27T03:18:47.766Z,9.97
2022-09-27T03:21:33.035Z,9.95
2022-09-27T03:23:59.905Z,9.92
2022-09-27T03:26:30.959Z,9.90
2022-09-27T03:29:00.502Z,9.89
2022-09-27T03:31:31.268Z,9.89
2022-09-27T03:34:17.139Z,9.92
2022-09-27T03:36:44.146Z,10.00
2022-09-27T03:39:11.345Z,10.04
2022-09-27T03:41:38.581Z,10.08
2022-09-27T03:44:05.615Z,10.18
2022-09-27T03:46:32.816Z,10.25
2022-09-27T03:49:00.134Z,10.27
2022-09-27T03:51:27.628Z,10.26
2022-09-27T03:53:54.551Z,10.20
2022-09-27T03:56:21.737Z,10.17
2022-09-27T03:58:50.940Z,10.11
2022-09-27T04:01:21.269Z,10.04
2022-09-27T04:03:56.103Z,10.02
2022-09-27T04:06:30.127Z,10.02
2022-09-27T04:08:59.996Z,10.03
2022-09-27T04:11:40.877Z,10.02
2022-09-27T04:14:09.084Z,10.02
2022-09-27T04:16:46.579Z,10.04
2022-09-27T04:19:33.178Z,10.04
2022-09-27T04:22:08.300Z,10.06
2022-09-27T04:24:35.433Z,10.07
2022-09-27T04:27:22.857Z,10.09
2022-09-27T04:29:52.372Z,10.13
2022-09-27T04:32:48.511Z,10.18
2022-09-27T04:36:05.820Z,10.25
2022-09-27T04:38:35.145Z,10.28
2022-09-27T04:41:02.479Z,10.31
2022-09-27T04:43:35.736Z,10.33
2022-09-27T04:46:04.881Z,10.33
2022-09-27T04:48:34.483Z,10.36
2022-09-27T04:51:02.964Z,10.37
2022-09-27T04:53:31.061Z,10.38
2022-09-27T04:56:02.875Z,10.38
2022-09-27T04:58:30.042Z,10.42
2022-09-27T05:01:01.874Z,10.42
2022-09-27T05:03:47.692Z,10.46
2022-09-27T05:06:18.556Z,10.48
2022-09-27T05:08:45.769Z,10.52
2022-09-27T05:11:25.329Z,10.51
2022-09-27T05:14:27.663Z,10.55
2022-09-27T05:17:08.737Z,10.60
2022-09-27T05:20:10.693Z,10.63
2022-09-27T05:22:43.096Z,10.67
2022-09-27T05:25:10.898Z,10.70
2022-09-27T05:27:41.081Z,10.73
2022-09-27T05:30:08.478Z,10.78
2022-09-27T05:32:49.358Z,10.85
2022-09-27T05:35:36.093Z,10.93
2022-09-27T05:38:03.795Z,10.99
2022-09-27T05:40:41.244Z,11.05
2022-09-27T05:43:10.243Z,11.14
2022-09-27T05:45:37.398Z,11.23
2022-09-27T05:48:06.099Z,11.29
2022-09-27T05:50:37.755Z,11.38
2022-09-27T05:53:07.463Z,11.47
2022-09-27T05:55:35.014Z,11.56
2022-09-27T05:58:04.688Z,11.64
2022-09-27T06:00:46.539Z,11.71
2022-09-27T06:03:47.358Z,11.83
2022-09-27T06:06:42.960Z,11.84
2022-09-27T06:09:12.074Z,11.90
2022-09-27T06:11:41.857Z,11.94
2022-09-27T06:14:13.999Z,11.98
2022-09-27T06:17:07.103Z,11.93
2022-09-27T06:19:36.647Z,12.02
2022-09-27T06:22:04.562Z,12.03
2022-09-27T06:24:48.979Z,12.02
2022-09-27T06:27:21.037Z,12.08
2022-09-27T06:30:06.424Z,12.09
2022-09-27T06:32:48.168Z,12.14
2022-09-27T06:35:27.734Z,12.18
2022-09-27T06:37:55.878Z,12.24
2022-09-27T06:40:27.332Z,12.35
2022-09-27T06:43:13.664Z,12.44
2022-09-27T06:46:06.659Z,12.63
2022-09-27T06:48:56.901Z,12.80
2022-09-27T06:51:24.244Z,12.94
2022-09-27T06:53:51.207Z,13.02
2022-09-27T06:56:19.179Z,13.09
2022-09-27T06:59:09.833Z,13.09
2022-09-27T07:01:43.710Z,13.01
2022-09-27T07:04:23.073Z,13.02
2022-09-27T07:07:10.796Z,12.98
2022-09-27T07:09:40.308Z,12.94
2022-09-27T07:12:07.925Z,12.89
2022-09-27T07:14:36.066Z,12.89
2022-09-27T07:17:04.673Z,12.88
2022-09-27T07:19:41.218Z,12.81
2022-09-27T07:22:09.327Z,12.80
2022-09-27T07:24:36.703Z,12.78
2022-09-27T07:27:06.368Z,12.82
2022-09-27T07:29:33.866Z,12.86
2022-09-27T07:32:01.499Z,12.86
2022-09-27T07:34:33.779Z,12.85
2022-09-27T07:37:03.488Z,12.91
2022-09-27T07:39:32.417Z,12.92
2022-09-27T07:42:02.542Z,12.92
2022-09-27T07:44:32.855Z,12.87
2022-09-27T07:47:25.299Z,12.90
2022-09-27T07:50:10.745Z,12.90
2022-09-27T07:52:59.592Z,12.91
2022-09-27T07:55:35.144Z,12.97
2022-09-27T07:58:11.410Z,12.98
2022-09-27T08:00:41.077Z,13.02
2022-09-27T08:03:15.443Z,12.99
2022-09-27T08:05:44.482Z,12.99
2022-09-27T08:08:11.898Z,12.98
2022-09-27T08:10:44.247Z,12.91
2022-09-27T08:13:13.065Z,12.79
2022-09-27T08:15:40.979Z,12.69
2022-09-27T08:18:10.579Z,12.59
2022-09-27T08:21:12.232Z,12.45
2022-09-27T08:23:50.196Z,12.39
2022-09-27T08:26:28.979Z,12.24
2022-09-27T08:29:25.131Z,12.17
2022-09-27T08:31:55.294Z,12.16
2022-09-27T08:34:23.893Z,12.09
2022-09-27T08:36:50.898Z,12.09
2022-09-27T08:39:18.360Z,12.14
2022-09-27T08:41:50.161Z,12.18
2022-09-27T08:44:34.676Z,12.22
2022-09-27T08:47:58.142Z,12.23
2022-09-27T08:50:27.314Z,12.24
2022-09-27T08:53:06.455Z,12.31
2022-09-27T08:55:42.002Z,12.21
2022-09-27T08:58:21.572Z,12.27
2022-09-27T09:00:55.521Z,12.35
2022-09-27T09:03:28.430Z,12.37
2022-09-27T09:06:20.594Z,12.33
2022-09-27T09:08:56.825Z,12.35
2022-09-27T09:11:59.504Z,12.35
2022-09-27T09:15:02.250Z,12.34
2022-09-27T09:17:42.301Z,12.43
2022-09-27T09:20:40.460Z,12.39
2022-09-27T09:23:36.886Z,12.43
2022-09-27T09:26:21.751Z,12.44
2022-09-27T09:29:29.528Z,12.47
2022-09-27T09:32:15.957Z,12.50
2022-09-27T09:34:49.461Z,12.57
2022-09-27T09:37:28.758Z,12.53
2022-09-27T09:40:15.005Z,12.42
2022-09-27T09:42:55.515Z,12.33
2022-09-27T09:45:31.011Z,12.33
2022-09-27T09:48:17.251Z,12.32
2022-09-27T09:50:55.663Z,12.41
2022-09-27T09:53:44.413Z,12.44
2022-09-27T09:56:23.645Z,12.56
2022-09-27T09:59:00.629Z,12.61
2022-09-27T10:01:37.913Z,12.71
2022-09-27T10:04:05.271Z,12.78
2022-09-27T10:06:32.666Z,12.89
2022-09-27T10:09:02.147Z,13.09
2022-09-27T10:11:44.582Z,13.25
2022-09-27T10:14:28.795Z,13.44
2022-09-27T10:17:08.364Z,13.50
2022-09-27T10:19:38.659Z,13.75
2022-09-27T10:22:25.186Z,13.87
2022-09-27T10:25:02.539Z,14.07
2022-09-27T10:27:54.706Z,14.16
2022-09-27T10:30:34.035Z,14.39
2022-09-27T10:33:20.737Z,14.62
2022-09-27T10:35:53.603Z,14.62
2022-09-27T10:38:30.164Z,14.94
2022-09-27T10:41:39.507Z,15.23
2022-09-27T10:44:20.662Z,15.47
2022-09-27T10:46:54.461Z,15.30
2022-09-27T10:49:42.945Z,15.23
2022-09-27T10:52:24.896Z,15.31
2022-09-27T10:55:19.214Z,15.45
2022-09-27T10:57:52.879Z,15.64
2022-09-27T11:00:35.123Z,15.75
2022-09-27T11:03:07.351Z,16.03
2022-09-27T11:05:39.608Z,15.89
2022-09-27T11:08:18.953Z,15.51
2022-09-27T11:11:15.069Z,15.33
2022-09-27T11:14:00.240Z,15.26
2022-09-27T11:16:35.102Z,15.12
2022-09-27T11:19:19.109Z,15.13
2022-09-27T11:21:55.273Z,15.04
2022-09-27T11:24:31.362Z,15.04
2022-09-27T11:27:10.250Z,15.16
2022-09-27T11:29:50.759Z,15.00
2022-09-27T11:33:08.421Z,14.94
2022-09-27T11:36:30.430Z,14.87
2022-09-27T11:39:14.149Z,14.66
2022-09-27T11:41:55.576Z,14.52
2022-09-27T11:45:07.767Z,14.46
2022-09-27T11:47:47.592Z,14.45
2022-09-27T11:50:26.839Z,14.36
2022-09-27T11:53:15.393Z,14.35
2022-09-27T11:56:02.148Z,14.40
2022-09-27T11:58:36.717Z,14.44
2022-09-27T12:01:39.324Z,14.43
2022-09-27T12:04:09.353Z,14.42
2022-09-27T12:06:54.935Z,14.65
2022-09-27T12:09:28.373Z,14.69
2022-09-27T12:12:11.073Z,15.02
2022-09-27T12:14:43.766Z,14.91
2022-09-27T12:17:26.538Z,15.04
2022-09-27T12:19:59.262Z,14.97
2022-09-27T12:23:01.168Z,15.15
2022-09-27T12:25:57.222Z,15.15
2022-09-27T12:28:55.552Z,15.05
2022-09-27T12:31:33.662Z,15.25
2022-09-27T12:34:15.139Z,15.23
2022-09-27T12:37:08.184Z,14.99
2022-09-27T12:39:57.548Z,14.94
2022-09-27T12:42:38.824Z,15.05
2022-09-27T12:45:16.727Z,14.93
2022-09-27T12:48:00.864Z,14.88
2022-09-27T12:50:44.932Z,15.00
2022-09-27T12:53:14.859Z,15.05
2022-09-27T12:56:01.224Z,14.83
2022-09-27T12:58:55.803Z,14.78
2022-09-27T13:01:42.685Z,14.64
2022-09-27T13:04:16.004Z,14.64
2022-09-27T13:06:57.095Z,14.64
2022-09-27T13:10:05.260Z,14.63
2022-09-27T13:12:34.709Z,14.53
2022-09-27T13:15:04.903Z,14.44
2022-09-27T13:17:48.782Z,14.46
2022-09-27T13:20:55.744Z,14.31
2022-09-27T13:23:55.247Z,14.22
2022-09-27T13:26:44.536Z,14.08
2022-09-27T13:29:26.356Z,14.11
2022-09-27T13:31:54.528Z,14.06
2022-09-27T13:34:50.675Z,13.98
2022-09-27T13:37:48.502Z,13.88
2022-09-27T13:40:32.163Z,13.93
2022-09-27T13:43:35.924Z,14.02
2022-09-27T13:46:20.641Z,13.95
2022-09-27T13:48:52.541Z,13.97
2022-09-27T13:51:47.942Z,14.07
2022-09-27T13:54:34.087Z,14.14
2022-09-27T13:57:06.609Z,14.17
2022-09-27T13:59:50.430Z,14.10
2022-09-27T14:02:50.385Z,14.16
2022-09-27T14:05:23.268Z,14.19
2022-09-27T14:07:52.130Z,14.22
2022-09-27T14:10:23.317Z,14.17
2022-09-27T14:12:53.504Z,14.12
2022-09-27T14:15:30.077Z,14.13
2022-09-27T14:17:59.581Z,14.20
2022-09-27T14:20:40.762Z,14.26
2022-09-27T14:23:28.892Z,14.13
2022-09-27T14:25:57.923Z,14.13
2022-09-27T14:28:29.143Z,14.06
2022-09-27T14:31:23.910Z,14.04
2022-09-27T14:34:14.828Z,13.95
2022-09-27T14:37:07.500Z,13.91
2022-09-27T14:39:58.510Z,13.86
2022-09-27T14:42:37.420Z,13.88
2022-09-27T14:45:38.723Z,13.80
2022-09-27T14:48:40.169Z,13.70
2022-09-27T14:51:14.290Z,13.61
2022-09-27T14:53:46.807Z,13.50
2022-09-27T14:56:22.727Z,13.44
2022-09-27T14:58:58.800Z,13.39
2022-09-27T15:01:25.966Z,13.34
2022-09-27T15:03:53.918Z,13.35
2022-09-27T15:06:21.573Z,13.30
2022-09-27T15:08:50.383Z,13.25
2022-09-27T15:11:19.544Z,13.18
2022-09-27T15:13:52.651Z,13.20
2022-09-27T15:16:23.443Z,13.21
2022-09-27T15:19:03.785Z,13.12
2022-09-27T15:21:34.215Z,13.12
2022-09-27T15:24:02.848Z,13.12
2022-09-27T15:26:44.393Z,13.08
2022-09-27T15:29:27.168Z,13.02
2022-09-27T15:32:03.582Z,13.07
2022-09-27T15:34:34.723Z,13.01
2022-09-27T15:37:06.438Z,13.01
2022-09-27T15:39:39.325Z,12.97
2022-09-27T15:42:17.582Z,13.01
2022-09-27T15:44:58.323Z,13.02
2022-09-27T15:47:40.358Z,13.04
2022-09-27T15:50:16.710Z,13.09
2022-09-27T15:52:50.823Z,13.09
2022-09-27T15:55:25.368Z,13.10
2022-09-27T15:58:20.505Z,13.09
2022-09-27T16:00:56.103Z,13.08
2022-09-27T16:03:29.787Z,13.03
2022-09-27T16:05:59.873Z,13.00
2022-09-27T16:08:30.968Z,12.97
2022-09-27T16:10:59.770Z,12.95
2022-09-27T16:13:32.525Z,12.92
2022-09-27T16:16:04.894Z,12.86
2022-09-27T16:18:34.992Z,12.80
2022-09-27T16:21:02.658Z,12.81
2022-09-27T16:23:29.957Z,12.82
2022-09-27T16:25:57.064Z,12.84
2022-09-27T16:28:24.333Z,12.83
2022-09-27T16:30:51.669Z,12.77
2022-09-27T16:33:21.503Z,12.72
2022-09-27T16:35:50.313Z,12.77
2022-09-27T16:38:22.046Z,12.79
2022-09-27T16:40:53.613Z,12.76
2022-09-27T16:43:21.839Z,12.75
2022-09-27T16:45:51.431Z,12.75
2022-09-27T16:48:18.659Z,12.75
2022-09-27T16:51:04.284Z,12.76
2022-09-27T16:53:31.808Z,12.69
2022-09-27T16:56:03.901Z,12.68
2022-09-27T16:58:31.106Z,12.65
2022-09-27T17:01:01.038Z,12.65
2022-09-27T17:03:28.768Z,12.59
2022-09-27T17:06:01.752Z,12.52
2022-09-27T17:08:28.965Z,12.52
2022-09-27T17:10:57.085Z,12.47
2022-09-27T17:13:24.222Z,12.47
2022-09-27T17:15:51.757Z,12.40
2022-09-27T17:18:22.382Z,12.28
2022-09-27T17:20:49.337Z,12.32
2022-09-27T17:23:17.544Z,12.26
2022-09-27T17:25:44.840Z,12.23
2022-09-27T17:28:12.053Z,12.21
2022-09-27T17:30:43.512Z,12.20
2022-09-27T17:33:10.564Z,12.18
2022-09-27T17:35:38.427Z,12.11
2022-09-27T17:38:08.790Z,12.11
2022-09-27T17:40:35.875Z,12.09
2022-09-27T17:43:04.179Z,12.07
2022-09-27T17:45:31.282Z,12.08
2022-09-27T17:48:17.335Z,12.03
2022-09-27T17:50:48.089Z,12.02
2022-09-27T17:53:15.091Z,11.97
2022-09-27T17:55:42.686Z,11.94
2022-09-27T17:58:12.286Z,11.88
2022-09-27T18:00:39.776Z,11.87
2022-09-27T18:03:09.929Z,11.85
2022-09-27T18:05:38.382Z,11.81
2022-09-27T18:08:05.598Z,11.75
2022-09-27T18:10:33.653Z,11.75
2022-09-27T18:13:05.762Z,11.76
2022-09-27T18:15:33.040Z,11.77
2022-09-27T18:18:01.012Z,11.77
2022-09-27T18:20:29.502Z,11.69
2022-09-27T18:22:56.852Z,11.66
2022-09-27T18:25:28.159Z,11.72
2022-09-27T18:27:56.369Z,11.74
2022-09-27T18:30:23.675Z,11.72
2022-09-27T18:35:36.202Z,11.72
2022-09-27T18:38:03.510Z,11.72
2022-09-27T18:40:51.951Z,11.70
2022-09-27T18:43:18.524Z,11.64
2022-09-27T18:45:46.017Z,11.62
2022-09-27T18:48:14.303Z,11.58
2022-09-27T18:50:42.180Z,11.53
2022-09-27T18:53:09.457Z,11.52
2022-09-27T18:55:38.652Z,11.53
2022-09-27T18:58:09.057Z,11.52
2022-09-27T19:00:38.749Z,11.46
2022-09-27T19:03:06.434Z,11.43
2022-09-27T19:05:33.583Z,11.38
2022-09-27T19:08:00.929Z,11.31
2022-09-27T19:10:28.802Z,11.19
2022-09-27T19:12:58.718Z,11.09
2022-09-27T19:15:26.220Z,11.06
2022-09-27T19:17:53.900Z,11.04
2022-09-27T19:20:23.873Z,11.10
2022-09-27T19:22:51.189Z,11.09
2022-09-27T19:25:18.504Z,11.02
2022-09-27T19:27:46.058Z,11.04
2022-09-27T19:30:14.093Z,10.98
2022-09-27T19:32:42.010Z,10.92
2022-09-27T19:35:12.537Z,10.81
2022-09-27T19:37:40.623Z,10.71
2022-09-27T19:40:08.547Z,10.64
2022-09-27T19:42:36.052Z,10.46
2022-09-27T19:45:05.797Z,10.37
2022-09-27T19:47:39.609Z,10.23
2022-09-27T19:50:07.891Z,10.14
2022-09-27T19:52:35.688Z,10.11
2022-09-27T19:55:06.808Z,10.03
2022-09-27T19:57:33.929Z,10.01
2022-09-27T20:00:03.542Z,10.03
2022-09-27T20:02:32.328Z,9.91
2022-09-27T20:04:59.439Z,9.88
2022-09-27T20:07:27.230Z,9.80
2022-09-27T20:09:54.727Z,9.73
2022-09-27T20:12:23.944Z,9.74
2022-09-27T20:14:51.230Z,9.68
2022-09-27T20:17:18.407Z,9.61
2022-09-27T20:19:45.908Z,9.50
2022-09-27T20:22:13.306Z,9.37
2022-09-27T20:24:40.478Z,9.25
2022-09-27T20:27:10.561Z,9.20
2022-09-27T20:29:37.768Z,9.17
2022-09-27T20:35:00.222Z,9.05
2022-09-27T20:37:27.674Z,8.94
2022-09-27T20:39:54.812Z,8.87
2022-09-27T20:42:22.787Z,8.81
2022-09-27T20:44:54.102Z,8.72
2022-09-27T20:47:22.619Z,8.62
2022-09-27T20:49:50.404Z,8.54
2022-09-27T20:52:19.881Z,8.45
2022-09-27T20:54:49.423Z,8.37
2022-09-27T20:57:16.736Z,8.30
2022-09-27T20:59:43.885Z,8.21
2022-09-27T21:02:11.196Z,8.15
2022-09-27T21:04:38.609Z,8.09
2022-09-27T21:07:08.184Z,8.17
2022-09-27T21:09:37.492Z,8.18
2022-09-27T21:12:04.726Z,8.24
2022-09-27T21:14:31.720Z,8.28
2022-09-27T21:17:03.443Z,8.39
2022-09-27T21:19:30.900Z,8.43
2022-09-27T21:21:57.876Z,8.39
2022-09-27T21:24:24.954Z,8.38
2022-09-27T21:26:53.392Z,8.35
2022-09-27T21:29:21.406Z,8.35
2022-09-27T21:31:48.433Z,8.38
2022-09-27T21:34:16.565Z,8.32
2022-09-27T21:36:43.830Z,8.23
2022-09-27T21:39:11.019Z,8.17
2022-09-27T21:41:39.257Z,8.16
2022-09-27T21:44:07.517Z,8.07
2022-09-27T21:46:34.840Z,8.05
2022-09-27T21:49:02.266Z,8.06
2022-09-27T21:51:33.035Z,8.03
2022-09-27T21:54:06.033Z,7.97
2022-09-27T21:56:35.855Z,7.94
2022-09-27T21:59:04.384Z,8.15
2022-09-27T22:01:33.488Z,8.13
2022-09-27T22:04:02.314Z,8.07
2022-09-27T22:06:31.996Z,8.08
2022-09-27T22:09:01.591Z,8.16
2022-09-27T22:11:35.310Z,8.16
2022-09-27T22:14:02.490Z,8.29
2022-09-27T22:16:30.414Z,8.40
2022-09-27T22:18:58.712Z,8.71
2022-09-27T22:21:37.591Z,8.79
2022-09-27T22:24:08.365Z,8.77
2022-09-27T22:26:41.270Z,8.79
2022-09-27T22:29:09.230Z,8.79
2022-09-27T22:31:37.212Z,9.02
2022-09-27T22:34:06.665Z,8.97
2022-09-27T22:36:34.945Z,8.93
2022-09-27T22:39:02.766Z,9.00
2022-09-27T22:41:32.273Z,9.12
2022-09-27T22:43:59.460Z,9.10
2022-09-27T22:46:27.006Z,9.32
2022-09-27T22:48:55.790Z,9.60
2022-09-27T22:51:23.007Z,9.73
2022-09-27T22:53:50.026Z,9.80
2022-09-27T22:56:21.767Z,9.79
2022-09-27T22:58:50.067Z,9.74
2022-09-27T23:01:24.939Z,9.62
2022-09-27T23:03:57.321Z,9.68
2022-09-27T23:06:24.345Z,9.73
2022-09-27T23:08:51.743Z,9.68
2022-09-27T23:11:21.370Z,9.65
2022-09-27T23:13:51.327Z,9.61
2022-09-27T23:16:25.321Z,9.75
2022-09-27T23:18:54.586Z,9.76
2022-09-27T23:21:24.695Z,9.76
2022-09-27T23:23:56.126Z,9.69
2022-09-27T23:26:28.315Z,9.58
2022-09-27T23:28:57.715Z,9.43
2022-09-27T23:31:29.726Z,9.28
2022-09-27T23:33:58.698Z,9.13
2022-09-27T23:36:27.609Z,8.97
2022-09-27T23:38:58.497Z,8.86
2022-09-27T23:41:26.107Z,8.74
2022-09-27T23:43:55.293Z,8.60
2022-09-27T23:46:22.618Z,8.52
2022-09-27T23:48:49.684Z,8.41
2022-09-27T23:51:16.725Z,8.34
2022-09-27T23:53:46.262Z,8.24
2022-09-27T23:56:17.608Z,8.21
2022-09-27T23:58:46.113Z,8.13
